sensor_id;sensor_type;location;lat;lon;timestamp;P1;durP1;ratioP1;P2;durP2;ratioP2
12912;SDS011;6524;51.368;11.984;2024-03-29T00:03:06;3.03;;;1.60;;
12912;SDS011;6524;51.368;11.984;2024-03-29T00:08:07;3.83;;;2.00;;
12912;SDS011;6524;51.368;11.984;2024-03-29T00:13:07;2.83;;;2.10;;
12912;SDS011;6524;51.368;11.984;2024-03-29T00:18:08;3.15;;;2.33;;
12912;SDS011;6524;51.368;11.984;2024-03-29T00:23:08;4.77;;;2.60;;
12912;SDS011;6524;51.368;11.984;2024-03-29T00:28:08;3.45;;;1.90;;
12912;SDS011;6524;51.368;11.984;2024-03-29T00:33:09;3.23;;;2.10;;
12912;SDS011;6524;51.368;11.984;2024-03-29T00:38:09;2.65;;;1.70;;
12912;SDS011;6524;51.368;11.984;2024-03-29T00:43:09;2.05;;;1.83;;
12912;SDS011;6524;51.368;11.984;2024-03-29T00:48:10;1.83;;;1.40;;
12912;SDS011;6524;51.368;11.984;2024-03-29T00:53:10;2.17;;;1.60;;
12912;SDS011;6524;51.368;11.984;2024-03-29T00:58:10;3.35;;;1.90;;
12912;SDS011;6524;51.368;11.984;2024-03-29T05:02:12;1.93;;;1.63;;
12912;SDS011;6524;51.368;11.984;2024-03-29T05:07:12;2.17;;;1.67;;
12912;SDS011;6524;51.368;11.984;2024-03-29T05:12:12;2.80;;;1.90;;
12912;SDS011;6524;51.368;11.984;2024-03-29T05:17:13;2.40;;;1.60;;
12912;SDS011;6524;51.368;11.984;2024-03-29T05:22:13;2.10;;;1.80;;
12912;SDS011;6524;51.368;11.984;2024-03-29T05:27:13;3.67;;;1.90;;
12912;SDS011;6524;51.368;11.984;2024-03-29T05:32:14;2.33;;;1.60;;
12912;SDS011;6524;51.368;11.984;2024-03-29T05:37:14;2.53;;;1.53;;
12912;SDS011;6524;51.368;11.984;2024-03-29T05:42:17;3.50;;;1.80;;
12912;SDS011;6524;51.368;11.984;2024-03-29T05:47:17;3.20;;;1.70;;
12912;SDS011;6524;51.368;11.984;2024-03-29T05:52:17;2.77;;;1.67;;
12912;SDS011;6524;51.368;11.984;2024-03-29T05:57:18;3.25;;;2.10;;
12912;SDS011;6524;51.368;11.984;2024-03-29T06:02:18;3.17;;;1.90;;
12912;SDS011;6524;51.368;11.984;2024-03-29T06:07:18;1.90;;;1.65;;
12912;SDS011;6524;51.368;11.984;2024-03-29T06:12:18;3.55;;;2.05;;
12912;SDS011;6524;51.368;11.984;2024-03-29T06:17:19;3.17;;;2.08;;
12912;SDS011;6524;51.368;11.984;2024-03-29T06:22:25;2.22;;;1.70;;
12912;SDS011;6524;51.368;11.984;2024-03-29T06:27:29;2.00;;;1.70;;
12912;SDS011;6524;51.368;11.984;2024-03-29T06:32:32;2.00;;;1.80;;
12912;SDS011;6524;51.368;11.984;2024-03-29T06:37:33;2.73;;;1.77;;
12912;SDS011;6524;51.368;11.984;2024-03-29T06:42:33;2.27;;;1.80;;
12912;SDS011;6524;51.368;11.984;2024-03-29T06:47:33;2.72;;;1.70;;
12912;SDS011;6524;51.368;11.984;2024-03-29T06:52:34;2.95;;;1.90;;
12912;SDS011;6524;51.368;11.984;2024-03-29T06:57:34;1.92;;;1.60;;
12912;SDS011;6524;51.368;11.984;2024-03-29T07:02:35;2.28;;;1.60;;
12912;SDS011;6524;51.368;11.984;2024-03-29T07:07:36;2.08;;;1.80;;
12912;SDS011;6524;51.368;11.984;2024-03-29T07:12:36;2.65;;;1.60;;
12912;SDS011;6524;51.368;11.984;2024-03-29T07:17:37;3.80;;;2.10;;
12912;SDS011;6524;51.368;11.984;2024-03-29T07:22:37;3.10;;;2.13;;
12912;SDS011;6524;51.368;11.984;2024-03-29T07:27:38;2.55;;;2.00;;
12912;SDS011;6524;51.368;11.984;2024-03-29T07:32:38;2.17;;;1.70;;
12912;SDS011;6524;51.368;11.984;2024-03-29T07:37:39;2.22;;;1.80;;
12912;SDS011;6524;51.368;11.984;2024-03-29T07:42:40;2.45;;;1.83;;
12912;SDS011;6524;51.368;11.984;2024-03-29T07:47:40;2.53;;;2.00;;
12912;SDS011;6524;51.368;11.984;2024-03-29T07:52:40;2.00;;;1.80;;
12912;SDS011;6524;51.368;11.984;2024-03-29T07:57:41;3.17;;;2.10;;
12912;SDS011;6524;51.368;11.984;2024-03-29T08:02:41;2.88;;;2.10;;
12912;SDS011;6524;51.368;11.984;2024-03-29T08:07:41;1.73;;;1.63;;
12912;SDS011;6524;51.368;11.984;2024-03-29T08:12:41;3.47;;;2.22;;
12912;SDS011;6524;51.368;11.984;2024-03-29T08:17:42;2.88;;;1.80;;
12912;SDS011;6524;51.368;11.984;2024-03-29T08:22:42;2.13;;;1.40;;
12912;SDS011;6524;51.368;11.984;2024-03-29T08:27:43;2.03;;;1.73;;
12912;SDS011;6524;51.368;11.984;2024-03-29T08:32:43;2.00;;;1.60;;
12912;SDS011;6524;51.368;11.984;2024-03-29T08:37:43;4.30;;;2.33;;
12912;SDS011;6524;51.368;11.984;2024-03-29T08:42:43;2.00;;;1.58;;
12912;SDS011;6524;51.368;11.984;2024-03-29T08:47:44;1.95;;;1.50;;
12912;SDS011;6524;51.368;11.984;2024-03-29T08:52:44;2.00;;;1.55;;
12912;SDS011;6524;51.368;11.984;2024-03-29T08:57:45;1.73;;;1.63;;
12912;SDS011;6524;51.368;11.984;2024-03-29T09:02:46;3.47;;;1.45;;
12912;SDS011;6524;51.368;11.984;2024-03-29T09:07:46;2.40;;;1.55;;
12912;SDS011;6524;51.368;11.984;2024-03-29T09:12:47;2.65;;;1.90;;
12912;SDS011;6524;51.368;11.984;2024-03-29T09:17:48;3.25;;;1.80;;
12912;SDS011;6524;51.368;11.984;2024-03-29T09:22:50;2.67;;;1.90;;
12912;SDS011;6524;51.368;11.984;2024-03-29T09:27:51;2.80;;;1.80;;
12912;SDS011;6524;51.368;11.984;2024-03-29T09:32:51;2.78;;;1.80;;
12912;SDS011;6524;51.368;11.984;2024-03-29T09:37:52;2.70;;;2.00;;
12912;SDS011;6524;51.368;11.984;2024-03-29T09:42:52;1.92;;;1.73;;
12912;SDS011;6524;51.368;11.984;2024-03-29T09:47:55;2.53;;;1.58;;
12912;SDS011;6524;51.368;11.984;2024-03-29T09:52:57;1.80;;;1.67;;
12912;SDS011;6524;51.368;11.984;2024-03-29T09:57:59;2.40;;;1.90;;
12912;SDS011;6524;51.368;11.984;2024-03-29T10:03:00;2.28;;;1.70;;
12912;SDS011;6524;51.368;11.984;2024-03-29T10:08:01;2.67;;;1.70;;
12912;SDS011;6524;51.368;11.984;2024-03-29T10:13:07;2.22;;;1.60;;
12912;SDS011;6524;51.368;11.984;2024-03-29T10:18:08;2.97;;;1.70;;
12912;SDS011;6524;51.368;11.984;2024-03-29T10:23:09;1.77;;;1.60;;
12912;SDS011;6524;51.368;11.984;2024-03-29T10:28:10;2.10;;;1.60;;
12912;SDS011;6524;51.368;11.984;2024-03-29T10:33:11;1.98;;;1.70;;
12912;SDS011;6524;51.368;11.984;2024-03-29T10:38:12;2.75;;;1.92;;
12912;SDS011;6524;51.368;11.984;2024-03-29T10:43:13;1.83;;;1.70;;
12912;SDS011;6524;51.368;11.984;2024-03-29T10:48:16;2.22;;;1.58;;
12912;SDS011;6524;51.368;11.984;2024-03-29T10:53:16;2.88;;;1.70;;
12912;SDS011;6524;51.368;11.984;2024-03-29T10:58:17;1.63;;;1.45;;
12912;SDS011;6524;51.368;11.984;2024-03-29T11:03:38;3.08;;;2.20;;
12912;SDS011;6524;51.368;11.984;2024-03-29T11:08:44;2.58;;;1.70;;
12912;SDS011;6524;51.368;11.984;2024-03-29T11:18:53;2.10;;;1.90;;
12912;SDS011;6524;51.368;11.984;2024-03-29T11:23:54;1.65;;;1.55;;
12912;SDS011;6524;51.368;11.984;2024-03-29T11:28:57;2.35;;;1.63;;
12912;SDS011;6524;51.368;11.984;2024-03-29T11:33:59;2.30;;;1.70;;
12912;SDS011;6524;51.368;11.984;2024-03-29T11:38:59;2.30;;;1.65;;
12912;SDS011;6524;51.368;11.984;2024-03-29T11:44:00;3.00;;;2.00;;
12912;SDS011;6524;51.368;11.984;2024-03-29T11:49:00;2.80;;;2.30;;
12912;SDS011;6524;51.368;11.984;2024-03-29T11:54:01;3.08;;;2.22;;
12912;SDS011;6524;51.368;11.984;2024-03-29T11:59:03;1.85;;;1.50;;
12912;SDS011;6524;51.368;11.984;2024-03-29T12:04:03;2.55;;;1.70;;
12912;SDS011;6524;51.368;11.984;2024-03-29T12:09:05;1.98;;;1.48;;
12912;SDS011;6524;51.368;11.984;2024-03-29T12:14:11;1.58;;;1.20;;
12912;SDS011;6524;51.368;11.984;2024-03-29T12:19:22;2.20;;;2.00;;
12912;SDS011;6524;51.368;11.984;2024-03-29T12:24:23;1.40;;;1.30;;
12912;SDS011;6524;51.368;11.984;2024-03-29T12:29:23;1.38;;;1.27;;
12912;SDS011;6524;51.368;11.984;2024-03-29T12:34:23;1.48;;;1.20;;
12912;SDS011;6524;51.368;11.984;2024-03-29T12:39:24;1.83;;;1.20;;
12912;SDS011;6524;51.368;11.984;2024-03-29T12:44:26;1.60;;;1.50;;
12912;SDS011;6524;51.368;11.984;2024-03-29T12:49:26;1.30;;;1.20;;
12912;SDS011;6524;51.368;11.984;2024-03-29T12:54:27;1.83;;;1.55;;
12912;SDS011;6524;51.368;11.984;2024-03-29T12:59:33;1.33;;;1.20;;
12912;SDS011;6524;51.368;11.984;2024-03-29T13:04:34;1.67;;;1.10;;
12912;SDS011;6524;51.368;11.984;2024-03-29T13:09:36;1.52;;;1.23;;
12912;SDS011;6524;51.368;11.984;2024-03-29T13:14:36;1.98;;;1.20;;
12912;SDS011;6524;51.368;11.984;2024-03-29T13:19:36;1.13;;;1.02;;
12912;SDS011;6524;51.368;11.984;2024-03-29T13:24:37;1.85;;;1.20;;
12912;SDS011;6524;51.368;11.984;2024-03-29T13:29:37;1.20;;;1.10;;
12912;SDS011;6524;51.368;11.984;2024-03-29T13:34:37;1.10;;;1.00;;
12912;SDS011;6524;51.368;11.984;2024-03-29T13:39:38;1.70;;;1.40;;
12912;SDS011;6524;51.368;11.984;2024-03-29T13:44:38;1.20;;;1.10;;
12912;SDS011;6524;51.368;11.984;2024-03-29T13:49:38;1.60;;;1.38;;
12912;SDS011;6524;51.368;11.984;2024-03-29T13:54:42;2.28;;;1.70;;
12912;SDS011;6524;51.368;11.984;2024-03-29T13:59:46;1.30;;;1.20;;
12912;SDS011;6524;51.368;11.984;2024-03-29T14:04:46;1.40;;;1.30;;
12912;SDS011;6524;51.368;11.984;2024-03-29T14:09:47;1.60;;;1.50;;
12912;SDS011;6524;51.368;11.984;2024-03-29T14:14:48;1.30;;;1.20;;
12912;SDS011;6524;51.368;11.984;2024-03-29T14:19:50;1.77;;;1.50;;
12912;SDS011;6524;51.368;11.984;2024-03-29T14:24:51;2.13;;;1.90;;
12912;SDS011;6524;51.368;11.984;2024-03-29T14:29:52;2.83;;;2.20;;
12912;SDS011;6524;51.368;11.984;2024-03-29T14:34:55;1.20;;;0.95;;
12912;SDS011;6524;51.368;11.984;2024-03-29T14:39:57;1.40;;;1.30;;
12912;SDS011;6524;51.368;11.984;2024-03-29T14:44:58;2.13;;;1.50;;
12912;SDS011;6524;51.368;11.984;2024-03-29T14:49:59;2.20;;;1.90;;
12912;SDS011;6524;51.368;11.984;2024-03-29T14:55:01;2.67;;;2.10;;
12912;SDS011;6524;51.368;11.984;2024-03-29T15:00:01;2.17;;;1.70;;
12912;SDS011;6524;51.368;11.984;2024-03-29T15:05:04;1.40;;;1.30;;
12912;SDS011;6524;51.368;11.984;2024-03-29T15:10:06;1.17;;;1.17;;
12912;SDS011;6524;51.368;11.984;2024-03-29T15:15:10;1.42;;;1.20;;
12912;SDS011;6524;51.368;11.984;2024-03-29T15:20:10;1.45;;;1.30;;
12912;SDS011;6524;51.368;11.984;2024-03-29T15:25:11;1.63;;;1.38;;
12912;SDS011;6524;51.368;11.984;2024-03-29T15:30:12;1.00;;;1.00;;
12912;SDS011;6524;51.368;11.984;2024-03-29T15:35:13;1.30;;;1.20;;
12912;SDS011;6524;51.368;11.984;2024-03-29T15:40:13;3.20;;;2.30;;
12912;SDS011;6524;51.368;11.984;2024-03-29T15:45:14;3.42;;;2.72;;
12912;SDS011;6524;51.368;11.984;2024-03-29T15:50:14;3.03;;;2.58;;
12912;SDS011;6524;51.368;11.984;2024-03-29T15:55:14;1.70;;;1.60;;
12912;SDS011;6524;51.368;11.984;2024-03-29T16:00:15;1.88;;;1.30;;
12912;SDS011;6524;51.368;11.984;2024-03-29T16:05:15;1.45;;;1.35;;
12912;SDS011;6524;51.368;11.984;2024-03-29T16:10:15;2.08;;;1.33;;
12912;SDS011;6524;51.368;11.984;2024-03-29T16:15:16;1.50;;;1.40;;
12912;SDS011;6524;51.368;11.984;2024-03-29T16:20:16;1.90;;;1.48;;
12912;SDS011;6524;51.368;11.984;2024-03-29T16:25:16;1.42;;;1.33;;
12912;SDS011;6524;51.368;11.984;2024-03-29T16:30:17;1.60;;;1.50;;
12912;SDS011;6524;51.368;11.984;2024-03-29T16:35:18;1.58;;;1.48;;
12912;SDS011;6524;51.368;11.984;2024-03-29T16:40:19;2.03;;;1.40;;
12912;SDS011;6524;51.368;11.984;2024-03-29T16:45:19;1.70;;;1.60;;
12912;SDS011;6524;51.368;11.984;2024-03-29T16:50:19;2.17;;;1.80;;
12912;SDS011;6524;51.368;11.984;2024-03-29T16:55:20;1.93;;;1.73;;
12912;SDS011;6524;51.368;11.984;2024-03-29T17:00:20;1.90;;;1.70;;
12912;SDS011;6524;51.368;11.984;2024-03-29T17:05:20;2.92;;;2.22;;
12912;SDS011;6524;51.368;11.984;2024-03-29T17:10:21;2.42;;;2.00;;
12912;SDS011;6524;51.368;11.984;2024-03-29T17:15:21;2.67;;;2.45;;
12912;SDS011;6524;51.368;11.984;2024-03-29T17:20:21;2.77;;;2.30;;
12912;SDS011;6524;51.368;11.984;2024-03-29T17:25:22;2.55;;;2.35;;
12912;SDS011;6524;51.368;11.984;2024-03-29T17:30:22;3.40;;;3.00;;
12912;SDS011;6524;51.368;11.984;2024-03-29T17:35:22;3.33;;;2.90;;
12912;SDS011;6524;51.368;11.984;2024-03-29T17:40:27;2.67;;;2.38;;
12912;SDS011;6524;51.368;11.984;2024-03-29T17:45:28;2.60;;;2.17;;
12912;SDS011;6524;51.368;11.984;2024-03-29T17:50:28;5.15;;;3.78;;
12912;SDS011;6524;51.368;11.984;2024-03-29T17:55:28;2.83;;;2.25;;
12912;SDS011;6524;51.368;11.984;2024-03-29T18:00:31;3.25;;;2.70;;
12912;SDS011;6524;51.368;11.984;2024-03-29T18:05:31;2.95;;;2.75;;
12912;SDS011;6524;51.368;11.984;2024-03-29T18:10:32;3.33;;;2.70;;
12912;SDS011;6524;51.368;11.984;2024-03-29T18:15:32;3.60;;;3.17;;
12912;SDS011;6524;51.368;11.984;2024-03-29T18:20:32;4.80;;;3.75;;
12912;SDS011;6524;51.368;11.984;2024-03-29T18:25:33;9.15;;;6.60;;
12912;SDS011;6524;51.368;11.984;2024-03-29T18:30:34;5.15;;;4.60;;
12912;SDS011;6524;51.368;11.984;2024-03-29T18:35:40;4.47;;;3.97;;
12912;SDS011;6524;51.368;11.984;2024-03-29T18:40:41;5.60;;;4.78;;
12912;SDS011;6524;51.368;11.984;2024-03-29T18:45:41;4.43;;;3.55;;
12912;SDS011;6524;51.368;11.984;2024-03-29T18:50:41;3.97;;;3.53;;
12912;SDS011;6524;51.368;11.984;2024-03-29T18:55:42;4.20;;;3.80;;
12912;SDS011;6524;51.368;11.984;2024-03-29T19:00:42;5.80;;;5.20;;
12912;SDS011;6524;51.368;11.984;2024-03-29T19:05:42;5.00;;;4.28;;
12912;SDS011;6524;51.368;11.984;2024-03-29T19:10:43;6.88;;;6.10;;
12912;SDS011;6524;51.368;11.984;2024-03-29T19:15:43;6.53;;;5.60;;
12912;SDS011;6524;51.368;11.984;2024-03-29T19:20:44;6.63;;;5.38;;
12912;SDS011;6524;51.368;11.984;2024-03-29T19:25:45;5.43;;;4.93;;
12912;SDS011;6524;51.368;11.984;2024-03-29T19:30:45;9.35;;;8.35;;
12912;SDS011;6524;51.368;11.984;2024-03-29T19:35:46;7.95;;;7.15;;
12912;SDS011;6524;51.368;11.984;2024-03-29T19:40:46;6.50;;;4.97;;
12912;SDS011;6524;51.368;11.984;2024-03-29T19:45:47;5.88;;;4.88;;
12912;SDS011;6524;51.368;11.984;2024-03-29T19:50:47;7.65;;;6.85;;
12912;SDS011;6524;51.368;11.984;2024-03-29T19:55:48;5.45;;;4.72;;
12912;SDS011;6524;51.368;11.984;2024-03-29T20:00:52;5.55;;;5.05;;
12912;SDS011;6524;51.368;11.984;2024-03-29T20:05:52;5.38;;;4.60;;
12912;SDS011;6524;51.368;11.984;2024-03-29T20:10:52;5.68;;;4.80;;
12912;SDS011;6524;51.368;11.984;2024-03-29T20:15:53;5.55;;;4.70;;
12912;SDS011;6524;51.368;11.984;2024-03-29T20:20:53;5.50;;;5.00;;
12912;SDS011;6524;51.368;11.984;2024-03-29T20:25:54;5.68;;;5.07;;
12912;SDS011;6524;51.368;11.984;2024-03-29T20:30:55;5.13;;;4.40;;
12912;SDS011;6524;51.368;11.984;2024-03-29T20:36:00;6.70;;;5.13;;
12912;SDS011;6524;51.368;11.984;2024-03-29T20:41:00;4.97;;;4.47;;
12912;SDS011;6524;51.368;11.984;2024-03-29T20:46:01;6.38;;;4.95;;
12912;SDS011;6524;51.368;11.984;2024-03-29T20:51:01;7.07;;;5.43;;
12912;SDS011;6524;51.368;11.984;2024-03-29T20:56:05;7.07;;;5.38;;
12912;SDS011;6524;51.368;11.984;2024-03-29T21:01:06;7.75;;;6.88;;
12912;SDS011;6524;51.368;11.984;2024-03-29T21:06:07;6.05;;;5.45;;
12912;SDS011;6524;51.368;11.984;2024-03-29T21:11:07;5.68;;;4.97;;
12912;SDS011;6524;51.368;11.984;2024-03-29T21:16:07;5.80;;;5.10;;
12912;SDS011;6524;51.368;11.984;2024-03-29T21:21:08;6.78;;;5.35;;
12912;SDS011;6524;51.368;11.984;2024-03-29T21:26:08;6.18;;;5.57;;
12912;SDS011;6524;51.368;11.984;2024-03-29T21:31:09;5.93;;;5.32;;
12912;SDS011;6524;51.368;11.984;2024-03-29T21:36:09;7.90;;;6.00;;
12912;SDS011;6524;51.368;11.984;2024-03-29T21:41:10;6.80;;;6.07;;
12912;SDS011;6524;51.368;11.984;2024-03-29T21:46:11;6.25;;;5.65;;
12912;SDS011;6524;51.368;11.984;2024-03-29T21:51:11;6.25;;;5.65;;
12912;SDS011;6524;51.368;11.984;2024-03-29T21:56:13;7.95;;;5.93;;
12912;SDS011;6524;51.368;11.984;2024-03-29T22:01:13;10.02;;;7.97;;
12912;SDS011;6524;51.368;11.984;2024-03-29T22:06:16;9.50;;;7.70;;
12912;SDS011;6524;51.368;11.984;2024-03-29T22:11:16;8.68;;;7.78;;
12912;SDS011;6524;51.368;11.984;2024-03-29T22:16:17;9.80;;;8.57;;
12912;SDS011;6524;51.368;11.984;2024-03-29T22:21:17;9.40;;;8.13;;
12912;SDS011;6524;51.368;11.984;2024-03-29T22:26:17;9.73;;;8.82;;
12912;SDS011;6524;51.368;11.984;2024-03-29T22:31:18;9.27;;;8.38;;
12912;SDS011;6524;51.368;11.984;2024-03-29T22:36:18;9.35;;;8.38;;
12912;SDS011;6524;51.368;11.984;2024-03-29T22:41:29;11.48;;;10.25;;
12912;SDS011;6524;51.368;11.984;2024-03-29T22:46:30;9.65;;;8.60;;
12912;SDS011;6524;51.368;11.984;2024-03-29T22:51:31;9.60;;;8.60;;
12912;SDS011;6524;51.368;11.984;2024-03-29T22:56:31;8.23;;;7.43;;
12912;SDS011;6524;51.368;11.984;2024-03-29T23:01:32;8.70;;;7.85;;
12912;SDS011;6524;51.368;11.984;2024-03-29T23:06:32;8.48;;;7.53;;
12912;SDS011;6524;51.368;11.984;2024-03-29T23:11:32;8.90;;;8.05;;
12912;SDS011;6524;51.368;11.984;2024-03-29T23:16:33;7.80;;;7.00;;
12912;SDS011;6524;51.368;11.984;2024-03-29T23:21:33;7.37;;;6.67;;
12912;SDS011;6524;51.368;11.984;2024-03-29T23:26:33;7.75;;;6.90;;
12912;SDS011;6524;51.368;11.984;2024-03-29T23:31:34;7.45;;;6.75;;
12912;SDS011;6524;51.368;11.984;2024-03-29T23:36:35;8.15;;;7.35;;
12912;SDS011;6524;51.368;11.984;2024-03-29T23:41:36;8.15;;;7.35;;
12912;SDS011;6524;51.368;11.984;2024-03-29T23:46:36;9.57;;;8.57;;
12912;SDS011;6524;51.368;11.984;2024-03-29T23:51:36;9.32;;;8.38;;
12912;SDS011;6524;51.368;11.984;2024-03-29T23:56:37;10.30;;;8.63;;
